Bookmark and Share
Track history (hours):
 

Tim Quigg

More information available from US FCC via Universal Licensing System and Coast Guard Vessel Documentation Center.

Last reported at 2014-Apr-08 17:15 UTC. Time now 2014-Apr-16 19:16 UTC.
Position N 33°44' W 118°16'.
Warning: this ship's position is 8 days out of date.

; draft 7.5 m.

Type: Tug. MMSI: 366926740.

NotesDate/timePositionNaut miles runAvg speedWind from/ knotsBaromVisibWave heightAir tempDewpointWater temp
2014-Apr-08 17:15N 33°44' W 118°16'0 0.0
2014-Apr-08 14:32N 33°44' W 118°16'0 0.0
2014-Apr-08 13:33N 33°44' W 118°16'0 0.0
2014-Apr-08 12:31N 33°44' W 118°16'0 0.0
2014-Apr-08 11:33N 33°44' W 118°16'0 0.0
2014-Apr-08 10:33N 33°44' W 118°16'0 0.0
2014-Apr-08 09:33N 33°44' W 118°16'0 0.0
2014-Apr-08 08:33N 33°44' W 118°16'0 0.0
2014-Apr-08 07:33N 33°44' W 118°16'0 0.0
2014-Apr-08 05:30N 33°44' W 118°16'0 0.0
2014-Apr-08 02:08N 33°44' W 118°16'0 0.0
2014-Apr-08 01:33N 33°44' W 118°16'0 0.0
2014-Apr-08 00:33N 33°44' W 118°16'0 0.0
2014-Apr-07 23:33N 33°44' W 118°16'0 0.0
2014-Apr-07 22:33N 33°44' W 118°16'0 0.0
2014-Apr-07 21:33N 33°44' W 118°16'0 0.0
2014-Apr-07 20:33N 33°44' W 118°16'0 0.0
2014-Apr-07 19:33N 33°44' W 118°16'0 0.0
2014-Apr-07 17:33N 33°44' W 118°16'0 0.3
2014-Apr-07 16:31N 33°44' W 118°16'0 0.2
2014-Apr-07 15:33N 33°44' W 118°16'0 0.3
2014-Apr-07 14:33N 33°44' W 118°16'2 2.3
2014-Apr-07 13:33N 33°46' W 118°16'3 3.4
2014-Apr-07 12:33N 33°43' W 118°15'3 1.2
2014-Apr-07 10:13N 33°45' W 118°12'0 0.1
2014-Apr-07 09:33N 33°45' W 118°12'3 3.0
2014-Apr-07 08:33N 33°43' W 118°15'1 1.0
2014-Apr-07 07:33N 33°44' W 118°16'0 0.0
2014-Apr-07 06:33N 33°44' W 118°16'0 0.0
2014-Apr-07 05:33N 33°44' W 118°16'0 0.0
2014-Apr-07 04:33N 33°44' W 118°16'0 0.0
2014-Apr-07 03:32N 33°44' W 118°16'2 1.9
2014-Apr-07 02:32N 33°46' W 118°15'2 1.8
2014-Apr-07 01:33N 33°44' W 118°17'1 0.9
2014-Apr-07 00:33N 33°44' W 118°16'0 0.0
2014-Apr-06 23:33N 33°44' W 118°16'0 0.0
2014-Apr-06 22:33N 33°44' W 118°16'0 0.0
2014-Apr-06 21:33N 33°44' W 118°16'1 1.1
2014-Apr-06 20:33N 33°45' W 118°17'0 0.0
2014-Apr-06 19:28N 33°45' W 118°17'0 0.0
2014-Apr-06 18:29N 33°45' W 118°17'0 0.0
2014-Apr-06 17:14N 33°45' W 118°17'1 0.1
2014-Apr-06 09:18N 33°44' W 118°16'0 0.0
2014-Apr-06 07:33N 33°44' W 118°16'0 0.0
2014-Apr-06 02:19N 33°44' W 118°16'1 1.2
2014-Apr-06 01:29N 33°44' W 118°17'1 1.2
2014-Apr-06 00:24N 33°45' W 118°16'2 0.1
2014-Apr-04 08:32N 33°44' W 118°13'2 0.5
2014-Apr-04 04:33N 33°44' W 118°16'0 0.0
2014-Apr-04 03:33N 33°44' W 118°16'2 0.8
2014-Apr-04 01:27N 33°45' W 118°17'3 2.7
2014-Apr-04 00:14N 33°43' W 118°14'3 4.3
2014-Apr-03 23:30N 33°45' W 118°11'0 0.0
2014-Apr-03 22:33N 33°45' W 118°11'0 0.0
2014-Apr-03 21:32N 33°45' W 118°11'  
2014-Mar-31 01:31N 33°44' W 118°16'0 0.1
2014-Mar-31 00:33N 33°44' W 118°16'3 2.4
2014-Mar-30 23:13N 33°46' W 118°13'3 4.3
2014-Mar-30 22:34N 33°44' W 118°11'4 0.2
2014-Mar-30 03:07N 33°44' W 118°16'2 3.4
2014-Mar-30 02:34N 33°44' W 118°13'2 0.5
2014-Mar-29 23:25N 33°45' W 118°12'3 3.5
2014-Mar-29 22:34N 33°44' W 118°16'0 0.0
2014-Mar-29 21:34N 33°44' W 118°16'1 1.1
2014-Mar-29 20:34N 33°45' W 118°17'2 1.8
2014-Mar-29 19:28N 33°43' W 118°16'3 3.3
2014-Mar-29 18:32N 33°45' W 118°13'  

Dump ship's entire track history

sailing weather and tide predictions

Tim Quigg — WDB6570 — position and weather